createdAt,value
2022-08-11T00:01:33.344Z,23.06
2022-08-11T00:04:36.140Z,22.87
2022-08-11T00:07:42.629Z,22.74
2022-08-11T00:10:44.478Z,22.33
2022-08-11T00:13:47.007Z,22.69
2022-08-11T00:17:00.259Z,23.24
2022-08-11T00:20:11.939Z,23.17
2022-08-11T00:23:17.380Z,22.81
2022-08-11T00:26:21.210Z,23.30
2022-08-11T00:29:23.122Z,22.56
2022-08-11T00:32:24.938Z,22.47
2022-08-11T00:35:50.820Z,22.34
2022-08-11T00:38:51.011Z,22.39
2022-08-11T00:42:02.481Z,22.51
2022-08-11T00:45:13.584Z,22.51
2022-08-11T00:48:15.499Z,22.44
2022-08-11T00:51:24.312Z,22.62
2022-08-11T00:54:32.890Z,23.27
2022-08-11T00:57:57.141Z,23.02
2022-08-11T01:01:04.592Z,22.88
2022-08-11T01:04:25.141Z,23.33
2022-08-11T01:08:02.011Z,22.98
2022-08-11T01:11:04.066Z,23.13
2022-08-11T01:14:33.682Z,22.89
2022-08-11T01:17:55.159Z,23.14
2022-08-11T01:21:03.381Z,22.93
2022-08-11T01:24:05.550Z,22.50
2022-08-11T01:27:18.771Z,22.63
2022-08-11T01:30:40.652Z,23.20
2022-08-11T01:33:42.502Z,23.09
2022-08-11T01:36:44.320Z,22.67
2022-08-11T01:39:52.561Z,22.60
2022-08-11T01:43:16.317Z,22.07
2022-08-11T01:46:27.006Z,22.47
2022-08-11T01:50:09.862Z,23.15
2022-08-11T01:53:11.759Z,22.92
2022-08-11T01:56:33.301Z,22.67
2022-08-11T01:59:36.421Z,21.61
2022-08-11T02:02:47.759Z,22.27
2022-08-11T02:06:30.706Z,22.25
2022-08-11T02:09:49.523Z,22.41
2022-08-11T02:12:55.813Z,22.86
2022-08-11T02:16:17.714Z,22.87
2022-08-11T02:19:46.118Z,22.17
2022-08-11T02:24:06.917Z,23.06
2022-08-11T02:27:09.973Z,22.92
2022-08-11T02:30:13.074Z,22.81
2022-08-11T02:33:24.875Z,22.93
2022-08-11T02:36:36.654Z,22.17
2022-08-11T02:39:40.907Z,22.11
2022-08-11T02:42:45.876Z,21.92
2022-08-11T02:45:47.938Z,22.37
2022-08-11T02:49:08.490Z,22.81
2022-08-11T02:52:29.329Z,22.46
2022-08-11T02:55:48.030Z,22.26
2022-08-11T02:59:22.031Z,22.50
2022-08-11T03:02:33.195Z,21.62
2022-08-11T03:05:38.142Z,22.28
2022-08-11T03:08:58.851Z,21.73
2022-08-11T03:12:31.630Z,21.76
2022-08-11T03:16:01.037Z,22.33
2022-08-11T03:19:11.266Z,22.56
2022-08-11T03:22:17.512Z,21.63
2022-08-11T03:25:31.690Z,21.59
2022-08-11T03:28:38.384Z,21.84
2022-08-11T03:31:48.254Z,21.99
2022-08-11T03:34:50.103Z,21.85
2022-08-11T03:37:55.614Z,21.72
2022-08-11T03:41:59.279Z,21.86
2022-08-11T03:45:05.555Z,21.67
2022-08-11T03:48:14.245Z,21.99
2022-08-11T03:51:27.621Z,21.96
2022-08-11T03:54:59.322Z,21.78
2022-08-11T03:58:10.145Z,21.76
2022-08-11T04:01:32.403Z,22.24
2022-08-11T04:04:35.709Z,21.76
2022-08-11T04:07:40.659Z,22.13
2022-08-11T04:11:01.079Z,22.10
2022-08-11T04:14:42.487Z,21.78
2022-08-11T04:18:02.491Z,22.43
2022-08-11T04:21:22.809Z,21.79
2022-08-11T04:24:54.734Z,21.95
2022-08-11T04:28:28.513Z,21.86
2022-08-11T04:31:50.564Z,22.08
2022-08-11T04:35:08.746Z,22.04
2022-08-11T04:38:25.929Z,22.33
2022-08-11T04:42:09.381Z,22.73
2022-08-11T04:45:20.602Z,22.49
2022-08-11T04:48:43.570Z,23.39
2022-08-11T04:52:08.571Z,22.85
2022-08-11T04:55:48.135Z,23.51
2022-08-11T04:59:23.195Z,23.50
2022-08-11T05:02:31.195Z,23.87
2022-08-11T05:05:56.168Z,23.01
2022-08-11T05:09:14.858Z,23.86
2022-08-11T05:12:20.980Z,24.52
2022-08-11T05:15:54.682Z,24.06
2022-08-11T05:19:15.996Z,24.65
2022-08-11T05:22:37.317Z,25.18
2022-08-11T05:26:43.687Z,24.71
2022-08-11T05:29:58.859Z,25.32
2022-08-11T05:33:19.956Z,23.82
2022-08-11T05:36:43.658Z,23.50
2022-08-11T05:40:05.749Z,24.27
2022-08-11T05:43:31.005Z,24.94
2022-08-11T05:46:58.362Z,24.46
2022-08-11T05:50:19.122Z,24.02
2022-08-11T05:53:51.987Z,24.59
2022-08-11T05:56:58.255Z,25.89
2022-08-11T06:00:02.467Z,26.74
2022-08-11T06:03:07.681Z,25.05
2022-08-11T06:06:09.556Z,26.07
2022-08-11T06:09:14.617Z,25.77
2022-08-11T06:12:24.065Z,26.63
2022-08-11T06:15:26.104Z,27.23
2022-08-11T06:18:28.177Z,28.36
2022-08-11T06:21:32.236Z,29.43
2022-08-11T06:24:34.982Z,29.79
2022-08-11T06:27:37.428Z,30.77
2022-08-11T06:30:40.554Z,28.23
2022-08-11T06:33:45.608Z,26.93
2022-08-11T06:36:51.732Z,26.81
2022-08-11T06:39:56.904Z,29.09
2022-08-11T06:43:03.123Z,28.87
2022-08-11T06:46:07.019Z,29.13
2022-08-11T06:49:29.582Z,29.84
2022-08-11T06:52:35.839Z,28.38
2022-08-11T06:56:02.357Z,29.00
2022-08-11T06:59:22.890Z,28.19
2022-08-11T07:02:31.226Z,29.08
2022-08-11T07:05:44.058Z,29.80
2022-08-11T07:09:10.773Z,29.73
2022-08-11T07:12:41.562Z,31.49
2022-08-11T07:16:10.868Z,32.05
2022-08-11T07:19:26.445Z,33.07
2022-08-11T07:22:47.441Z,31.79
2022-08-11T07:26:10.896Z,32.81
2022-08-11T07:29:14.228Z,33.17
2022-08-11T07:32:17.719Z,32.49
2022-08-11T07:35:25.151Z,33.17
2022-08-11T07:38:43.285Z,32.00
2022-08-11T07:41:47.675Z,32.72
2022-08-11T07:45:08.493Z,31.10
2022-08-11T07:48:29.871Z,30.31
2022-08-11T07:51:50.726Z,31.32
2022-08-11T07:54:52.807Z,31.84
2022-08-11T07:58:16.840Z,31.67
2022-08-11T08:01:41.181Z,33.72
2022-08-11T08:05:01.845Z,31.18
2022-08-11T08:08:22.364Z,32.77
2022-08-11T08:11:43.725Z,32.02
2022-08-11T08:15:04.481Z,33.34
2022-08-11T08:18:20.753Z,30.86
2022-08-11T08:21:29.169Z,34.09
2022-08-11T08:24:32.918Z,33.34
2022-08-11T08:27:35.839Z,31.76
2022-08-11T08:30:51.723Z,31.88
2022-08-11T08:33:53.755Z,30.90
2022-08-11T08:36:56.076Z,31.73
2022-08-11T08:39:58.833Z,29.94
2022-08-11T08:43:08.014Z,29.31
2022-08-11T08:46:10.264Z,30.25
2022-08-11T08:49:16.363Z,29.30
2022-08-11T08:52:31.843Z,31.92
2022-08-11T08:55:37.077Z,32.17
2022-08-11T08:58:39.480Z,34.01
2022-08-11T09:01:43.378Z,35.20
2022-08-11T09:04:49.461Z,32.80
2022-08-11T09:07:51.612Z,32.29
2022-08-11T09:11:13.965Z,32.54
2022-08-11T09:14:54.909Z,34.73
2022-08-11T09:18:03.788Z,32.74
2022-08-11T09:21:06.063Z,34.06
2022-08-11T09:24:26.746Z,33.90
2022-08-11T09:27:31.060Z,33.37
2022-08-11T09:30:33.114Z,34.69
2022-08-11T09:33:36.849Z,35.28
2022-08-11T09:36:57.742Z,37.00
2022-08-11T09:40:18.126Z,36.06
2022-08-11T09:43:40.381Z,37.26
2022-08-11T09:46:42.360Z,33.55
2022-08-11T09:49:49.253Z,31.63
2022-08-11T09:53:16.905Z,32.07
2022-08-11T09:56:33.792Z,31.50
2022-08-11T09:59:36.657Z,30.73
2022-08-11T10:02:46.088Z,29.75
2022-08-11T10:06:08.118Z,28.32
2022-08-11T10:09:10.266Z,29.84
2022-08-11T10:12:13.911Z,33.25
2022-08-11T10:15:34.702Z,31.13
2022-08-11T10:18:51.517Z,32.20
2022-08-11T10:22:12.246Z,32.84
2022-08-11T10:25:33.319Z,31.03
2022-08-11T10:29:02.182Z,31.57
2022-08-11T10:32:17.457Z,32.52
2022-08-11T10:35:20.706Z,33.38
2022-08-11T10:38:22.569Z,33.39
2022-08-11T10:42:06.419Z,30.84
2022-08-11T10:45:26.040Z,30.35
2022-08-11T10:48:28.560Z,30.45
2022-08-11T10:51:51.941Z,30.15
2022-08-11T10:55:14.415Z,30.94
2022-08-11T10:58:35.111Z,31.99
2022-08-11T11:01:44.195Z,30.23
2022-08-11T11:04:57.991Z,32.04
2022-08-11T11:08:28.425Z,30.35
2022-08-11T11:11:50.059Z,31.31
2022-08-11T11:15:16.112Z,30.43
2022-08-11T11:18:24.395Z,31.45
2022-08-11T11:21:26.364Z,35.13
2022-08-11T11:24:40.256Z,36.19
2022-08-11T11:27:48.636Z,35.01
2022-08-11T11:30:57.154Z,33.40
2022-08-11T11:34:12.286Z,35.70
2022-08-11T11:37:16.236Z,31.09
2022-08-11T11:40:21.799Z,31.79
2022-08-11T11:43:32.573Z,30.81
2022-08-11T11:46:39.069Z,30.53
2022-08-11T11:49:44.016Z,30.05
2022-08-11T11:52:46.325Z,29.87
2022-08-11T11:55:48.195Z,28.98
2022-08-11T11:59:08.807Z,29.49
2022-08-11T12:02:13.761Z,29.60
2022-08-11T12:05:15.689Z,29.31
2022-08-11T12:08:17.754Z,29.04
2022-08-11T12:11:39.099Z,29.29
2022-08-11T12:14:41.085Z,31.74
2022-08-11T12:17:43.004Z,33.11
2022-08-11T12:20:45.451Z,34.36
2022-08-11T12:24:06.550Z,34.29
2022-08-11T12:27:25.345Z,32.73
2022-08-11T12:30:28.146Z,32.29
2022-08-11T12:33:30.671Z,32.78
2022-08-11T12:36:34.615Z,31.69
2022-08-11T12:40:17.007Z,30.98
2022-08-11T12:43:41.414Z,30.92
2022-08-11T12:46:44.355Z,30.67
2022-08-11T12:50:22.964Z,29.86
2022-08-11T12:53:29.166Z,30.09
2022-08-11T12:56:52.061Z,29.96
2022-08-11T13:00:12.885Z,29.69
2022-08-11T13:03:33.828Z,30.97
2022-08-11T13:06:37.645Z,30.64
2022-08-11T13:09:39.885Z,30.74
2022-08-11T13:12:50.934Z,30.48
2022-08-11T13:15:53.327Z,29.85
2022-08-11T13:18:55.865Z,29.61
2022-08-11T13:21:58.046Z,29.53
2022-08-11T13:25:00.462Z,28.60
2022-08-11T13:28:03.478Z,29.77
2022-08-11T13:31:11.408Z,29.50
2022-08-11T13:34:15.599Z,29.59
2022-08-11T13:37:21.049Z,30.37
2022-08-11T13:40:55.237Z,29.26
2022-08-11T13:43:58.342Z,29.64
2022-08-11T13:47:02.657Z,28.51
2022-08-11T13:50:05.843Z,28.40
2022-08-11T13:53:07.819Z,28.61
2022-08-11T13:56:09.805Z,28.86
2022-08-11T13:59:12.298Z,29.75
2022-08-11T14:02:28.079Z,28.61
2022-08-11T14:05:33.641Z,29.47
2022-08-11T14:08:38.521Z,29.01
2022-08-11T14:12:21.551Z,30.13
2022-08-11T14:15:28.077Z,29.55
2022-08-11T14:18:30.784Z,29.69
2022-08-11T14:21:55.026Z,29.04
2022-08-11T14:24:57.482Z,29.75
2022-08-11T14:28:31.146Z,29.49
2022-08-11T14:31:21.734Z,30.18
2022-08-11T14:34:24.377Z,30.31
2022-08-11T14:37:26.499Z,30.16
2022-08-11T14:40:47.200Z,30.06
2022-08-11T14:44:14.048Z,29.45
2022-08-11T14:47:24.350Z,28.57
2022-08-11T14:50:27.933Z,28.52
2022-08-11T14:53:29.880Z,30.36
2022-08-11T14:56:37.330Z,29.01
2022-08-11T14:59:39.261Z,29.75
2022-08-11T15:03:00.206Z,29.55
2022-08-11T15:06:02.830Z,29.48
2022-08-11T15:09:08.847Z,28.35
2022-08-11T15:12:31.586Z,28.47
2022-08-11T15:15:53.909Z,28.38
2022-08-11T15:18:55.875Z,27.94
2022-08-11T15:22:16.461Z,28.78
2022-08-11T15:25:19.953Z,28.35
2022-08-11T15:28:40.671Z,28.39
2022-08-11T15:31:49.221Z,28.24
2022-08-11T15:35:15.043Z,28.33
2022-08-11T15:38:17.042Z,28.10
2022-08-11T15:41:37.861Z,28.66
2022-08-11T15:45:03.286Z,28.32
2022-08-11T15:48:10.564Z,28.43
2022-08-11T15:51:14.383Z,28.54
2022-08-11T15:54:21.145Z,27.85
2022-08-11T15:57:41.850Z,27.82
2022-08-11T16:01:08.657Z,28.28
2022-08-11T16:04:15.038Z,28.10
2022-08-11T16:07:26.719Z,27.89
2022-08-11T16:10:29.082Z,27.95
2022-08-11T16:13:37.053Z,28.33
2022-08-11T16:16:39.457Z,27.77
2022-08-11T16:19:41.496Z,27.59
2022-08-11T16:23:00.345Z,27.23
2022-08-11T16:27:10.017Z,27.95
2022-08-11T16:29:28.174Z,27.22
2022-08-11T16:32:30.087Z,27.05
2022-08-11T16:35:54.410Z,27.75
2022-08-11T16:38:56.669Z,27.37
2022-08-11T16:43:09.018Z,27.40
2022-08-11T16:45:58.831Z,27.94
2022-08-11T16:49:03.066Z,27.30
2022-08-11T16:52:08.000Z,27.54
2022-08-11T16:55:10.236Z,27.92
2022-08-11T16:58:31.005Z,27.92
2022-08-11T17:01:33.673Z,27.62
2022-08-11T17:05:01.768Z,27.50
2022-08-11T17:08:22.795Z,27.79
2022-08-11T17:11:45.653Z,27.53
2022-08-11T17:14:52.635Z,27.38
2022-08-11T17:17:54.494Z,26.63
2022-08-11T17:20:56.465Z,25.70
2022-08-11T17:24:08.440Z,25.38
2022-08-11T17:27:11.068Z,24.75
2022-08-11T17:30:14.904Z,24.81
2022-08-11T17:33:35.771Z,24.77
2022-08-11T17:36:41.609Z,24.57
2022-08-11T17:39:45.385Z,24.16
2022-08-11T17:43:06.117Z,24.48
2022-08-11T17:46:08.345Z,23.86
2022-08-11T17:49:11.487Z,24.37
2022-08-11T17:52:35.419Z,24.61
2022-08-11T17:55:56.079Z,24.70
2022-08-11T17:59:18.454Z,24.45
2022-08-11T18:02:40.757Z,24.92
2022-08-11T18:05:43.733Z,24.62
2022-08-11T18:09:05.530Z,24.59
2022-08-11T18:12:26.967Z,24.43
2022-08-11T18:15:50.018Z,24.78
2022-08-11T18:19:16.311Z,24.17
2022-08-11T18:22:44.264Z,24.65
2022-08-11T18:26:07.533Z,24.50
2022-08-11T18:29:28.513Z,24.99
2022-08-11T18:32:50.144Z,25.65
2022-08-11T18:36:16.691Z,25.07
2022-08-11T18:39:37.328Z,25.74
2022-08-11T18:42:58.229Z,24.93
2022-08-11T18:46:23.686Z,25.28
2022-08-11T18:50:02.148Z,23.96
2022-08-11T18:53:24.572Z,24.55
2022-08-11T18:56:45.317Z,24.73
2022-08-11T19:00:06.146Z,24.50
2022-08-11T19:03:26.968Z,24.42
2022-08-11T19:06:47.401Z,25.00
2022-08-11T19:10:07.909Z,25.57
2022-08-11T19:13:28.305Z,25.34
2022-08-11T19:16:48.821Z,24.36
2022-08-11T19:20:09.061Z,24.53
2022-08-11T19:23:30.005Z,24.07
2022-08-11T19:26:53.083Z,23.88
2022-08-11T19:30:14.497Z,24.51
2022-08-11T19:33:59.784Z,23.91
2022-08-11T19:37:15.334Z,24.20
2022-08-11T19:40:35.846Z,23.34
2022-08-11T19:43:56.301Z,23.87
2022-08-11T19:47:16.904Z,24.04
2022-08-11T19:50:37.813Z,24.24
2022-08-11T19:54:00.946Z,23.67
2022-08-11T19:57:22.410Z,24.42
2022-08-11T20:00:43.130Z,24.04
2022-08-11T20:04:03.694Z,23.90
2022-08-11T20:07:24.079Z,23.73
2022-08-11T20:10:44.410Z,23.89
2022-08-11T20:14:05.142Z,24.12
2022-08-11T20:17:26.130Z,23.81
2022-08-11T20:20:46.638Z,24.07
2022-08-11T20:24:08.489Z,24.15
2022-08-11T20:27:29.275Z,23.38
2022-08-11T20:30:51.841Z,23.85
2022-08-11T20:34:13.153Z,23.45
2022-08-11T20:37:33.981Z,23.60
2022-08-11T20:40:54.495Z,23.35
2022-08-11T20:44:15.403Z,23.52
2022-08-11T20:47:56.499Z,23.51
2022-08-11T20:51:16.621Z,23.64
2022-08-11T20:54:38.270Z,24.49
2022-08-11T20:58:05.821Z,23.70
2022-08-11T21:01:39.001Z,24.18
2022-08-11T21:05:01.841Z,23.57
2022-08-11T21:08:25.349Z,24.51
2022-08-11T21:11:46.012Z,24.17
2022-08-11T21:15:06.548Z,23.91
2022-08-11T21:18:28.217Z,23.79
2022-08-11T21:21:49.778Z,23.47
2022-08-11T21:25:15.486Z,22.63
2022-08-11T21:28:36.073Z,23.20
2022-08-11T21:31:56.532Z,23.44
2022-08-11T21:35:16.851Z,22.68
2022-08-11T21:38:37.536Z,23.12
2022-08-11T21:41:57.808Z,23.64
2022-08-11T21:45:18.284Z,23.29
2022-08-11T21:48:38.584Z,22.49
2022-08-11T21:51:59.115Z,22.27
2022-08-11T21:55:19.701Z,22.63
2022-08-11T21:58:40.299Z,22.41
2022-08-11T22:02:01.368Z,23.14
2022-08-11T22:05:22.071Z,22.89
2022-08-11T22:08:42.379Z,23.05
2022-08-11T22:12:35.222Z,22.38
2022-08-11T22:15:43.081Z,22.77
2022-08-11T22:19:04.555Z,22.88
2022-08-11T22:22:26.334Z,22.39
2022-08-11T22:25:55.115Z,22.52
2022-08-11T22:29:20.288Z,22.43
2022-08-11T22:32:59.138Z,22.18
2022-08-11T22:36:19.403Z,22.05
2022-08-11T22:39:39.987Z,22.05
2022-08-11T22:43:01.200Z,21.72
2022-08-11T22:46:22.117Z,22.08
2022-08-11T22:49:57.592Z,22.30
2022-08-11T22:53:18.921Z,21.80
2022-08-11T22:56:39.321Z,22.16
2022-08-11T22:59:59.710Z,22.72
2022-08-11T23:03:34.229Z,22.25
2022-08-11T23:06:58.875Z,21.75
2022-08-11T23:10:19.520Z,22.12
2022-08-11T23:13:40.094Z,21.85
2022-08-11T23:17:00.602Z,21.95
2022-08-11T23:20:28.826Z,21.83
2022-08-11T23:23:50.834Z,21.93
2022-08-11T23:27:11.478Z,22.31
2022-08-11T23:30:31.777Z,22.15
2022-08-11T23:33:52.322Z,22.18
2022-08-11T23:37:13.137Z,21.53
2022-08-11T23:40:34.125Z,21.93
2022-08-11T23:43:54.675Z,21.99
2022-08-11T23:47:17.902Z,22.01
2022-08-11T23:50:38.449Z,22.08
2022-08-11T23:53:59.024Z,21.68
2022-08-11T23:57:19.494Z,21.59
